CA-0013 weather

CLOSED RCAF Pennfield Ridge
Pennfield, New Brunswick, Canada

Public forecast

Using degrees Celsius for public forecast. Weather courtesy of forecast.io.

METAR (pilot weather report)

Closest report is Saint John Airport, 35.8 nm (66.3 km) ENE. Retrieved 2019/08/18 21:00 UTC (20 minutes ago):

CYSJ 182100Z 00000KT 8SM -DZ BR SCT004 OVC008 20/20 A3003 RMK SC3SC5 SLP171 DENSITY ALT 900FT

TAF (pilot weather forecast)

Closest forecast is Saint John Airport, 35.8 nm (66.3 km) ENE. Retrieved 2019/08/18 18:39 UTC (3 hours ago):

TAF CYSJ 181738Z 1818/1906 14008KT P6SM SCT005 BKN015 TEMPO 1818/1824 3SM -SHRA BR OVC005 PROB30 1822/1824 OVC003 FM190000 17005KT 6SM BR OVC003 BECMG 1900/1902 1/4SM FG VV001 FM190200 14005KT 1/4SM FG VV001 TEMPO 1902/1906 1/2SM FG VV002 RMK NXT FCST BY 190000Z